createdAt,value
2022-10-23T00:02:08.428Z,19.93
2022-10-23T00:04:35.850Z,14.47
2022-10-23T00:07:03.226Z,14.20
2022-10-23T00:09:32.025Z,14.23
2022-10-23T00:11:59.425Z,14.97
2022-10-23T00:14:26.813Z,14.20
2022-10-23T00:16:54.161Z,15.80
2022-10-23T00:19:21.562Z,14.47
2022-10-23T00:21:49.010Z,14.80
2022-10-23T00:24:16.414Z,13.80
2022-10-23T00:26:45.143Z,13.20
2022-10-23T00:29:12.978Z,13.33
2022-10-23T00:31:40.441Z,13.53
2022-10-23T00:34:09.152Z,15.13
2022-10-23T00:36:36.821Z,14.80
2022-10-23T00:39:04.553Z,14.53
2022-10-23T00:41:32.664Z,14.00
2022-10-23T00:44:08.737Z,13.97
2022-10-23T00:46:36.705Z,14.30
2022-10-23T00:49:05.726Z,13.43
2022-10-23T00:51:37.398Z,13.93
2022-10-23T00:56:53.841Z,12.70
2022-10-23T00:59:22.560Z,14.07
2022-10-23T01:01:50.079Z,13.63
2022-10-23T01:04:17.666Z,14.37
2022-10-23T01:06:52.120Z,14.17
2022-10-23T01:09:23.637Z,14.07
2022-10-23T01:11:56.010Z,14.53
2022-10-23T01:14:30.357Z,12.83
2022-10-23T01:17:02.011Z,13.30
2022-10-23T01:19:43.549Z,14.83
2022-10-23T01:24:59.060Z,12.63
2022-10-23T01:27:28.917Z,15.40
2022-10-23T01:30:05.842Z,14.50
2022-10-23T01:32:40.934Z,14.53
2022-10-23T01:35:13.354Z,14.57
2022-10-23T01:37:44.210Z,14.53
2022-10-23T01:40:18.424Z,14.67
2022-10-23T01:42:49.561Z,14.60
2022-10-23T01:45:20.810Z,19.37
2022-10-23T01:47:49.021Z,15.20
2022-10-23T01:50:18.757Z,15.47
2022-10-23T01:52:48.501Z,13.77
2022-10-23T01:55:18.457Z,16.43
2022-10-23T01:57:48.283Z,15.70
2022-10-23T02:00:18.165Z,15.93
2022-10-23T02:02:52.787Z,16.23
2022-10-23T02:05:24.925Z,15.87
2022-10-23T02:07:52.519Z,19.63
2022-10-23T02:10:32.450Z,17.07
2022-10-23T02:13:38.328Z,16.37
2022-10-23T02:16:11.737Z,17.50
2022-10-23T02:18:44.185Z,17.20
2022-10-23T02:21:15.129Z,15.83
2022-10-23T02:23:51.402Z,21.70
2022-10-23T02:26:24.966Z,17.13
2022-10-23T02:28:59.981Z,15.00
2022-10-23T02:31:27.742Z,20.30
2022-10-23T02:33:55.166Z,18.73
2022-10-23T02:36:23.132Z,15.97
2022-10-23T02:38:50.561Z,15.13
2022-10-23T02:41:24.813Z,15.90
2022-10-23T02:44:02.763Z,18.77
2022-10-23T02:46:33.574Z,14.80
2022-10-23T02:49:08.615Z,15.83
2022-10-23T02:51:43.967Z,17.00
2022-10-23T02:54:18.958Z,17.67
2022-10-23T02:56:52.073Z,14.33
2022-10-23T02:59:24.584Z,17.40
2022-10-23T03:01:54.384Z,16.53
2022-10-23T03:04:25.090Z,15.20
2022-10-23T03:06:52.866Z,16.57
2022-10-23T03:09:20.350Z,17.20
2022-10-23T03:11:47.696Z,17.63
2022-10-23T03:14:15.362Z,18.00
2022-10-23T03:16:44.044Z,17.20
2022-10-23T03:21:44.668Z,19.30
2022-10-23T03:24:11.981Z,20.53
2022-10-23T03:26:42.992Z,17.03
2022-10-23T03:29:10.752Z,23.67
2022-10-23T03:31:45.207Z,19.67
2022-10-23T03:34:13.601Z,22.50
2022-10-23T03:36:41.900Z,22.07
2022-10-23T03:39:10.652Z,20.60
2022-10-23T03:41:38.281Z,19.97
2022-10-23T03:46:37.999Z,19.40
2022-10-23T03:49:06.718Z,27.80
2022-10-23T03:51:34.125Z,21.83
2022-10-23T03:54:01.700Z,23.50
2022-10-23T03:56:29.167Z,27.00
2022-10-23T03:58:56.557Z,22.33
2022-10-23T04:01:26.771Z,22.00
2022-10-23T04:03:54.286Z,20.80
2022-10-23T04:06:23.513Z,23.70
2022-10-23T04:08:55.397Z,19.83
2022-10-23T04:11:23.165Z,26.07
2022-10-23T04:13:50.549Z,18.73
2022-10-23T04:16:17.985Z,20.33
2022-10-23T04:18:45.741Z,23.97
2022-10-23T04:21:13.485Z,21.67
2022-10-23T04:23:42.705Z,27.83
2022-10-23T04:26:13.651Z,25.33
2022-10-23T04:28:41.055Z,19.97
2022-10-23T04:31:08.534Z,18.90
2022-10-23T04:33:35.998Z,20.03
2022-10-23T04:36:03.521Z,20.33
2022-10-23T04:38:30.933Z,24.57
2022-10-23T04:40:59.716Z,23.80
2022-10-23T04:43:27.170Z,28.93
2022-10-23T04:45:54.530Z,24.27
2022-10-23T04:48:25.509Z,21.77
2022-10-23T04:51:15.752Z,18.40
2022-10-23T04:53:56.449Z,24.27
2022-10-23T04:56:32.901Z,26.37
2022-10-23T05:01:39.122Z,22.20
2022-10-23T05:04:08.364Z,21.60
2022-10-23T05:06:49.805Z,19.87
2022-10-23T05:09:27.821Z,21.63
2022-10-23T05:12:16.762Z,23.80
2022-10-23T05:14:44.101Z,25.30
2022-10-23T05:17:15.071Z,19.40
2022-10-23T05:19:44.855Z,19.87
2022-10-23T05:22:13.322Z,21.37
2022-10-23T05:24:50.547Z,24.43
2022-10-23T05:27:23.013Z,19.70
2022-10-23T05:29:51.977Z,20.30
2022-10-23T05:32:25.095Z,20.47
2022-10-23T05:34:53.552Z,19.83
2022-10-23T05:37:21.073Z,22.47
2022-10-23T05:39:48.562Z,26.17
2022-10-23T05:42:17.772Z,21.97
2022-10-23T05:44:47.358Z,23.27
2022-10-23T05:47:24.160Z,25.47
2022-10-23T05:50:01.418Z,22.77
2022-10-23T05:52:34.469Z,23.27
2022-10-23T05:55:31.098Z,22.03
2022-10-23T05:58:24.530Z,23.77
2022-10-23T06:01:31.945Z,19.77
2022-10-23T06:04:04.080Z,21.87
2022-10-23T06:06:48.669Z,19.87
2022-10-23T06:09:17.009Z,23.90
2022-10-23T06:11:45.548Z,20.13
2022-10-23T06:14:18.445Z,21.40
2022-10-23T06:16:47.263Z,20.47
2022-10-23T06:19:15.537Z,23.10
2022-10-23T06:21:44.162Z,21.20
2022-10-23T06:24:14.589Z,19.80
2022-10-23T06:26:49.833Z,21.73
2022-10-23T06:29:21.667Z,21.07
2022-10-23T06:31:51.956Z,20.70
2022-10-23T06:34:19.967Z,20.13
2022-10-23T06:36:48.065Z,20.33
2022-10-23T06:39:32.475Z,25.80
2022-10-23T06:42:09.853Z,22.17
2022-10-23T06:45:09.897Z,20.93
2022-10-23T06:47:38.657Z,20.57
2022-10-23T06:50:25.075Z,24.33
2022-10-23T06:52:54.137Z,19.83
2022-10-23T06:55:22.941Z,21.43
2022-10-23T06:57:50.414Z,21.53
2022-10-23T07:00:18.638Z,20.83
2022-10-23T07:02:53.063Z,20.03
2022-10-23T07:05:21.176Z,22.10
2022-10-23T07:07:48.782Z,22.50
2022-10-23T07:10:22.283Z,26.33
2022-10-23T07:13:00.502Z,23.67
2022-10-23T07:15:31.144Z,21.80
2022-10-23T07:18:00.659Z,20.30
2022-10-23T07:20:40.161Z,23.17
2022-10-23T07:23:08.342Z,20.80
2022-10-23T07:25:39.219Z,24.37
2022-10-23T07:28:07.194Z,23.07
2022-10-23T07:30:34.585Z,23.07
2022-10-23T07:33:04.657Z,25.67
2022-10-23T07:35:43.062Z,27.53
2022-10-23T07:38:13.758Z,25.87
2022-10-23T07:40:44.936Z,26.23
2022-10-23T07:43:15.329Z,29.43
2022-10-23T07:45:43.029Z,25.77
2022-10-23T07:48:20.865Z,26.67
2022-10-23T07:51:01.758Z,25.17
2022-10-23T07:53:30.035Z,25.33
2022-10-23T07:56:13.429Z,23.83
2022-10-23T07:59:00.839Z,26.07
2022-10-23T08:01:31.690Z,26.27
2022-10-23T08:04:00.939Z,26.37
2022-10-23T08:06:29.074Z,28.80
2022-10-23T08:08:59.892Z,25.27
2022-10-23T08:11:35.196Z,26.97
2022-10-23T08:14:05.929Z,27.53
2022-10-23T08:16:35.104Z,24.13
2022-10-23T08:19:29.431Z,23.90
2022-10-23T08:21:57.202Z,24.73
2022-10-23T08:24:24.634Z,23.33
2022-10-23T08:26:52.457Z,21.07
2022-10-23T08:29:23.654Z,22.73
2022-10-23T08:31:55.822Z,23.37
2022-10-23T08:34:32.222Z,19.20
2022-10-23T08:37:02.135Z,17.97
2022-10-23T08:39:29.922Z,20.80
2022-10-23T08:42:05.729Z,19.50
2022-10-23T08:44:36.760Z,16.60
2022-10-23T08:47:07.152Z,16.67
2022-10-23T08:49:56.677Z,15.10
2022-10-23T08:52:27.382Z,14.47
2022-10-23T08:55:03.530Z,15.13
2022-10-23T08:57:37.743Z,13.33
2022-10-23T09:00:12.113Z,12.97
2022-10-23T09:02:43.137Z,13.83
2022-10-23T09:05:16.765Z,13.43
2022-10-23T09:07:55.664Z,12.83
2022-10-23T09:10:50.693Z,12.53
2022-10-23T09:13:33.433Z,13.13
2022-10-23T09:16:07.473Z,12.33
2022-10-23T09:18:35.137Z,12.47
2022-10-23T09:21:04.016Z,12.33
2022-10-23T09:23:31.781Z,12.83
2022-10-23T09:26:02.525Z,12.63
2022-10-23T09:28:32.406Z,12.10
2022-10-23T09:31:07.471Z,11.77
2022-10-23T09:33:39.946Z,12.23
2022-10-23T09:36:19.460Z,12.00
2022-10-23T09:38:50.280Z,12.03
2022-10-23T09:41:21.785Z,12.37
2022-10-23T09:44:00.928Z,13.20
2022-10-23T09:46:38.439Z,12.93
2022-10-23T09:49:07.333Z,12.50
2022-10-23T09:51:36.082Z,12.87
2022-10-23T09:54:03.527Z,13.00
2022-10-23T09:56:32.405Z,13.17
2022-10-23T09:59:00.941Z,13.37
2022-10-23T10:01:30.355Z,13.67
2022-10-23T10:04:13.818Z,13.30
2022-10-23T10:06:43.656Z,13.83
2022-10-23T10:09:14.113Z,13.80
2022-10-23T10:11:45.677Z,13.60
2022-10-23T10:14:31.115Z,14.33
2022-10-23T10:17:02.512Z,14.03
2022-10-23T10:19:38.559Z,14.53
2022-10-23T10:22:13.141Z,14.53
2022-10-23T10:24:47.197Z,15.07
2022-10-23T10:27:29.161Z,14.70
2022-10-23T10:30:06.500Z,15.20
2022-10-23T10:32:39.949Z,15.83
2022-10-23T10:35:21.417Z,15.03
2022-10-23T10:38:01.397Z,14.97
2022-10-23T10:40:31.731Z,15.80
2022-10-23T10:43:21.173Z,16.47
2022-10-23T10:45:49.717Z,15.93
2022-10-23T10:48:29.496Z,16.00
2022-10-23T10:51:21.806Z,15.93
2022-10-23T10:54:00.500Z,16.07
2022-10-23T10:56:30.129Z,15.80
2022-10-23T10:58:59.231Z,16.07
2022-10-23T11:01:30.311Z,15.87
2022-10-23T11:04:02.563Z,15.87
2022-10-23T11:06:32.389Z,15.20
2022-10-23T11:09:19.671Z,16.00
2022-10-23T11:11:48.591Z,15.37
2022-10-23T11:14:17.330Z,15.53
2022-10-23T11:16:47.889Z,16.90
2022-10-23T11:19:21.796Z,15.40
2022-10-23T11:21:55.869Z,15.50
2022-10-23T11:24:58.380Z,16.53
2022-10-23T11:27:32.185Z,16.10
2022-10-23T11:30:12.763Z,16.07
2022-10-23T11:33:05.183Z,15.53
2022-10-23T11:35:44.005Z,15.30
2022-10-23T11:38:17.294Z,16.03
2022-10-23T11:40:47.890Z,15.90
2022-10-23T11:43:26.994Z,15.80
2022-10-23T11:45:54.409Z,16.00
2022-10-23T11:48:24.696Z,16.53
2022-10-23T11:50:54.832Z,15.77
2022-10-23T11:53:28.214Z,16.73
2022-10-23T11:56:02.598Z,16.27
2022-10-23T11:58:43.030Z,16.07
2022-10-23T12:01:22.616Z,16.50
2022-10-23T12:03:52.214Z,16.33
2022-10-23T12:06:24.028Z,16.47
2022-10-23T12:08:54.157Z,16.60
2022-10-23T12:11:42.004Z,16.17
2022-10-23T12:14:28.041Z,16.53
2022-10-23T12:16:55.601Z,16.30
2022-10-23T12:19:25.322Z,16.20
2022-10-23T12:21:53.704Z,16.40
2022-10-23T12:24:39.584Z,15.83
2022-10-23T12:27:17.462Z,16.20
2022-10-23T12:29:55.172Z,16.23
2022-10-23T12:32:34.440Z,16.30
2022-10-23T12:35:15.108Z,16.73
2022-10-23T12:37:52.420Z,15.53
2022-10-23T12:40:19.852Z,15.67
2022-10-23T12:42:54.585Z,15.93
2022-10-23T12:45:24.446Z,15.53
2022-10-23T12:47:52.981Z,15.37
2022-10-23T12:50:22.577Z,15.43
2022-10-23T12:52:57.361Z,15.50
2022-10-23T12:55:29.695Z,15.20
2022-10-23T12:57:59.721Z,15.43
2022-10-23T13:00:27.110Z,15.13
2022-10-23T13:02:59.894Z,15.10
2022-10-23T13:05:28.302Z,14.60
2022-10-23T13:07:55.797Z,14.30
2022-10-23T13:10:34.510Z,14.60
2022-10-23T13:13:07.777Z,14.80
2022-10-23T13:15:39.652Z,14.73
2022-10-23T13:18:08.404Z,15.73
2022-10-23T13:20:37.904Z,16.10
2022-10-23T13:23:12.202Z,15.70
2022-10-23T13:25:40.345Z,16.03
2022-10-23T13:28:24.017Z,18.50
2022-10-23T13:31:22.648Z,16.40
2022-10-23T13:33:55.108Z,16.07
2022-10-23T13:36:24.594Z,16.30
2022-10-23T13:39:14.197Z,16.30
2022-10-23T13:41:42.997Z,16.20
2022-10-23T13:44:12.380Z,15.93
2022-10-23T13:46:39.835Z,16.23
2022-10-23T13:49:07.269Z,16.37
2022-10-23T13:51:40.203Z,16.20
2022-10-23T13:54:15.315Z,16.63
2022-10-23T13:56:42.767Z,16.70
2022-10-23T13:59:12.090Z,16.60
2022-10-23T14:01:40.370Z,16.90
2022-10-23T14:04:08.183Z,16.90
2022-10-23T14:06:37.367Z,16.43
2022-10-23T14:09:05.928Z,16.40
2022-10-23T14:11:33.497Z,16.83
2022-10-23T14:14:00.986Z,16.40
2022-10-23T14:16:30.001Z,17.50
2022-10-23T14:18:57.789Z,16.60
2022-10-23T14:21:25.688Z,16.93
2022-10-23T14:23:54.066Z,16.83
2022-10-23T14:26:23.633Z,17.20
2022-10-23T14:28:53.338Z,16.57
2022-10-23T14:31:21.026Z,17.30
2022-10-23T14:33:53.984Z,17.37
2022-10-23T14:36:22.687Z,17.37
2022-10-23T14:38:55.461Z,17.13
2022-10-23T14:41:23.325Z,16.00
2022-10-23T14:43:50.754Z,16.57
2022-10-23T14:46:31.946Z,16.20
2022-10-23T14:49:02.526Z,16.17
2022-10-23T14:51:30.857Z,16.30
2022-10-23T14:54:01.480Z,16.50
2022-10-23T14:56:29.730Z,16.60
2022-10-23T14:59:02.415Z,16.50
2022-10-23T15:01:30.090Z,16.43
2022-10-23T15:03:57.751Z,16.53
2022-10-23T15:06:26.732Z,16.53
2022-10-23T15:08:55.514Z,16.97
2022-10-23T15:11:23.329Z,16.50
2022-10-23T15:13:51.231Z,16.37
2022-10-23T15:16:18.731Z,16.10
2022-10-23T15:18:46.142Z,16.87
2022-10-23T15:21:13.949Z,16.90
2022-10-23T15:23:44.126Z,16.10
2022-10-23T15:26:13.999Z,16.00
2022-10-23T15:28:41.536Z,16.13
2022-10-23T15:31:41.235Z,16.10
2022-10-23T15:34:11.175Z,16.53
2022-10-23T15:36:38.703Z,16.70
2022-10-23T15:39:09.845Z,15.50
2022-10-23T15:41:38.481Z,15.93
2022-10-23T15:44:07.328Z,16.40
2022-10-23T15:46:35.181Z,15.97
2022-10-23T15:49:02.844Z,16.10
2022-10-23T15:51:30.196Z,16.70
2022-10-23T15:53:57.630Z,16.20
2022-10-23T15:56:27.038Z,16.13
2022-10-23T15:58:54.408Z,16.70
2022-10-23T16:01:21.876Z,16.20
2022-10-23T16:03:50.126Z,15.73
2022-10-23T16:10:30.296Z,15.30
2022-10-23T16:12:59.117Z,15.13
2022-10-23T16:15:26.661Z,15.40
2022-10-23T16:17:54.913Z,14.70
2022-10-23T16:20:22.361Z,14.80
2022-10-23T16:22:49.716Z,15.23
2022-10-23T16:25:17.070Z,14.93
2022-10-23T16:27:45.093Z,14.77
2022-10-23T16:30:14.617Z,14.93
2022-10-23T16:32:44.002Z,15.20
2022-10-23T16:35:13.081Z,14.93
2022-10-23T16:37:54.028Z,14.63
2022-10-23T16:40:21.733Z,14.73
2022-10-23T16:43:21.487Z,15.70
2022-10-23T16:46:06.908Z,15.20
2022-10-23T16:48:34.821Z,16.83
2022-10-23T16:51:06.070Z,16.17
2022-10-23T16:53:33.617Z,15.60
2022-10-23T16:56:01.204Z,16.37
2022-10-23T16:58:28.706Z,19.83
2022-10-23T17:00:57.918Z,18.50
2022-10-23T17:03:26.852Z,18.00
2022-10-23T17:05:57.343Z,17.47
2022-10-23T17:08:26.961Z,16.03
2022-10-23T17:11:05.027Z,16.60
2022-10-23T17:13:32.597Z,15.30
2022-10-23T17:16:09.769Z,14.50
2022-10-23T17:18:42.859Z,13.87
2022-10-23T17:21:11.568Z,12.67
2022-10-23T17:23:38.905Z,13.30
2022-10-23T17:26:08.233Z,13.50
2022-10-23T17:28:39.725Z,13.03
2022-10-23T17:31:12.622Z,12.77
2022-10-23T17:33:42.022Z,13.67
2022-10-23T17:36:11.249Z,13.73
2022-10-23T17:38:39.521Z,13.53
2022-10-23T17:41:08.431Z,13.80
2022-10-23T17:43:36.236Z,14.20
2022-10-23T17:46:04.633Z,14.20
2022-10-23T17:48:32.248Z,14.10
2022-10-23T17:51:06.491Z,14.77
2022-10-23T17:53:34.645Z,14.80
2022-10-23T17:56:02.542Z,14.53
2022-10-23T17:58:30.017Z,14.33
2022-10-23T18:00:57.656Z,14.07
2022-10-23T18:03:25.133Z,13.10
2022-10-23T18:05:52.467Z,13.70
2022-10-23T18:08:21.100Z,14.37
2022-10-23T18:10:48.419Z,13.73
2022-10-23T18:13:15.865Z,14.30
2022-10-23T18:15:43.204Z,13.93
2022-10-23T18:18:10.535Z,12.87
2022-10-23T18:20:40.436Z,13.27
2022-10-23T18:23:07.961Z,13.03
2022-10-23T18:25:43.083Z,13.43
2022-10-23T18:28:10.497Z,12.10
2022-10-23T18:33:10.901Z,10.53
2022-10-23T18:35:38.346Z,10.63
2022-10-23T18:38:05.773Z,10.43
2022-10-23T18:40:34.383Z,8.63
2022-10-23T18:43:03.109Z,9.13
2022-10-23T18:45:30.695Z,9.10
2022-10-23T18:47:58.135Z,9.53
2022-10-23T18:50:25.543Z,9.53
2022-10-23T18:52:53.157Z,10.63
2022-10-23T18:55:20.933Z,11.90
2022-10-23T18:57:48.330Z,9.00
2022-10-23T19:00:17.546Z,9.10
2022-10-23T19:02:47.714Z,13.30
2022-10-23T19:05:18.621Z,10.47
2022-10-23T19:07:46.777Z,8.70
2022-10-23T19:10:17.711Z,9.30
2022-10-23T19:12:45.330Z,9.90
2022-10-23T19:15:13.029Z,8.87
2022-10-23T19:17:41.774Z,8.63
2022-10-23T19:20:11.421Z,8.27
2022-10-23T19:22:40.929Z,8.23
2022-10-23T19:25:11.264Z,8.70
2022-10-23T19:27:39.511Z,10.70
2022-10-23T19:30:13.433Z,9.00
2022-10-23T19:32:42.734Z,7.87
2022-10-23T19:35:10.660Z,13.97
2022-10-23T19:37:38.078Z,7.80
2022-10-23T19:40:06.591Z,10.20
2022-10-23T19:42:33.997Z,7.50
2022-10-23T19:45:01.527Z,11.23
2022-10-23T19:47:28.917Z,7.40
2022-10-23T19:49:57.634Z,9.10
2022-10-23T19:52:25.009Z,8.70
2022-10-23T19:54:52.477Z,7.90
2022-10-23T19:57:22.521Z,9.50
2022-10-23T19:59:50.697Z,10.73
2022-10-23T20:02:18.820Z,7.67
2022-10-23T20:04:46.545Z,9.37
2022-10-23T20:07:15.197Z,9.93
2022-10-23T20:09:42.606Z,8.73
2022-10-23T20:12:10.013Z,9.33
2022-10-23T20:14:37.349Z,8.63
2022-10-23T20:17:05.007Z,8.53
2022-10-23T20:19:32.401Z,8.53
2022-10-23T20:22:00.577Z,8.33
2022-10-23T20:24:29.236Z,9.63
2022-10-23T20:26:57.142Z,8.43
2022-10-23T20:29:25.556Z,8.23
2022-10-23T20:31:53.041Z,8.67
2022-10-23T20:34:20.544Z,8.93
2022-10-23T20:36:49.795Z,9.60
2022-10-23T20:39:19.376Z,10.60
2022-10-23T20:41:48.700Z,8.50
2022-10-23T20:46:50.376Z,9.73
2022-10-23T20:49:18.484Z,10.13
2022-10-23T20:51:46.122Z,10.03
2022-10-23T20:54:13.492Z,10.20
2022-10-23T20:56:40.804Z,10.30
2022-10-23T20:59:12.630Z,10.57
2022-10-23T21:01:41.195Z,11.10
2022-10-23T21:04:08.986Z,11.50
2022-10-23T21:06:46.283Z,11.63
2022-10-23T21:09:23.806Z,12.03
2022-10-23T21:11:51.234Z,11.77
2022-10-23T21:14:19.901Z,12.00
2022-10-23T21:16:47.228Z,11.53
2022-10-23T21:19:16.076Z,12.60
2022-10-23T21:21:43.695Z,12.27
2022-10-23T21:24:14.796Z,12.93
2022-10-23T21:26:42.493Z,12.63
2022-10-23T21:29:19.144Z,12.53
2022-10-23T21:31:54.117Z,12.27
2022-10-23T21:34:21.626Z,12.20
2022-10-23T21:37:11.372Z,12.07
2022-10-23T21:39:36.313Z,12.40
2022-10-23T21:42:03.749Z,12.00
2022-10-23T21:44:31.091Z,12.07
2022-10-23T21:46:59.745Z,12.10
2022-10-23T21:49:27.156Z,11.87
2022-10-23T21:51:54.712Z,11.97
2022-10-23T21:54:22.143Z,11.63
2022-10-23T21:56:50.953Z,11.97
2022-10-23T21:59:20.589Z,11.10
2022-10-23T22:01:49.468Z,10.90
2022-10-23T22:04:19.855Z,11.00
2022-10-23T22:06:48.800Z,11.03
2022-10-23T22:09:18.984Z,11.07
2022-10-23T22:11:46.382Z,11.20
2022-10-23T22:14:13.738Z,11.40
2022-10-23T22:16:41.843Z,11.73
2022-10-23T22:19:09.233Z,11.00
2022-10-23T22:21:38.433Z,11.40
2022-10-23T22:24:06.325Z,11.13
2022-10-23T22:26:35.437Z,11.20
2022-10-23T22:29:05.541Z,12.07
2022-10-23T22:31:34.289Z,11.63
2022-10-23T22:34:13.213Z,11.17
2022-10-23T22:36:51.632Z,11.13
2022-10-23T22:39:19.441Z,11.47
2022-10-23T22:41:47.397Z,11.10
2022-10-23T22:44:15.820Z,10.83
2022-10-23T22:46:43.510Z,10.73
2022-10-23T22:49:11.421Z,10.67
2022-10-23T22:51:38.883Z,10.57
2022-10-23T22:54:07.896Z,9.97
2022-10-23T22:56:42.329Z,10.03
2022-10-23T22:59:09.746Z,9.00
2022-10-23T23:01:39.961Z,10.43
2022-10-23T23:04:32.912Z,9.70
2022-10-23T23:06:55.065Z,9.57
2022-10-23T23:09:23.708Z,9.73
2022-10-23T23:11:51.877Z,9.70
2022-10-23T23:14:23.256Z,8.90
2022-10-23T23:16:52.228Z,9.13
2022-10-23T23:19:19.668Z,9.10
2022-10-23T23:21:47.029Z,9.17
2022-10-23T23:24:14.692Z,9.13
2022-10-23T23:26:43.377Z,9.27
2022-10-23T23:29:10.788Z,9.73
2022-10-23T23:31:38.120Z,9.10
2022-10-23T23:34:05.532Z,9.63
2022-10-23T23:36:33.986Z,9.27
2022-10-23T23:39:01.896Z,10.00
2022-10-23T23:41:29.973Z,9.27
2022-10-23T23:43:58.997Z,10.93
2022-10-23T23:46:26.708Z,9.67
2022-10-23T23:48:54.047Z,9.10
2022-10-23T23:51:23.360Z,9.97
2022-10-23T23:53:51.333Z,10.27
2022-10-23T23:56:19.145Z,8.93
2022-10-23T23:58:46.456Z,10.43
